Amberes, Argentina
Current Conditions -  °F | °C
As of 11:00 AM on Thursday 30 Oct 2014 (Local Time) from SLYA Reporting Station
Broken Clouds Broken Clouds  
Wind Chill: 84°   Ceiling: 7000
Heat Index: 91°   Visibility: 6mi
Dew Point: 73°   Wind: 17mph
Humidity: 70%   Direction: 180°S
Pressure: 29.77"   Gusts: NA
Location:  22.52°S, 62.53°W
Report Text: SLYA 301400Z 18015KT 9999 SCT025 BKN070 29/23 Q1008
Loading
Personal Weather Stations






























Interactive Weather Map
Tropical Storm Tracking
New forecast layout! Learn more

10-Day Weather Forecast

Advertisements
Track Severe Weather on mobile